Arca — PDHT — position and weather

sailwx.info

Track history (hours):
 
Tides and Currents Weather Stations Pressure Air Temp Water Temp Dewpoint Dewpoint Depression Visibility Wind Speed Wind Dir Waves Ship Positions

Oceanographic research ship Arca (Netherlands)

Detailed information on ship capabilities available from University of Delaware's Ocean Information Center.

Last reported at 2019-Apr-24 08:49 UTC. Time now 2019-Apr-24 22:20 UTC.
Position N 53°34' E 005°28'.

Length 83 m; draft 5 m.

Type: Law enforcement. MMSI: 244454000.

Date/timePositionNaut miles runAvg speedWind from/ knotsBaromVisibWave heightAir tempDewpointWater temp
2019-Apr-24 08:49N 53°34' E 005°28'2 1.5
2019-Apr-24 07:19N 53°33' E 005°24'2 2.1
2019-Apr-24 06:15N 53°34' E 005°28'3 0.4
2019-Apr-23 22:08N 53°32' E 005°25'0 0.2
2019-Apr-23 21:21N 53°32' E 005°25'0 0.2
2019-Apr-23 18:39N 53°31' E 005°25'13 7.3
2019-Apr-23 16:48N 53°26' E 005°05'410.3
2019-Apr-23 16:27N 53°24' E 004°59'510.2
2019-Apr-23 15:57N 53°20' E 004°53'2410.4
2019-Apr-23 13:41N 53°00' E 004°32'210.8
2019-Apr-23 13:30N 52°59' E 004°31'510.9
2019-Apr-23 13:00N 52°53' E 004°29'510.8
2019-Apr-23 12:30N 52°48' E 004°28'510.9
2019-Apr-23 12:00N 52°43' E 004°29'510.7
2019-Apr-23 11:30N 52°37' E 004°29'510.3
2019-Apr-23 11:00N 52°32' E 004°27'510.5
2019-Apr-23 10:30N 52°27' E 004°25'510.7
2019-Apr-23 10:00N 52°22' E 004°22'511.0
2019-Apr-23 09:30N 52°17' E 004°19'611.2
2019-Apr-23 09:00N 52°12' E 004°16'4 8.5
2019-Apr-23 08:31N 52°08' E 004°12'3 6.6
2019-Apr-23 08:00N 52°06' E 004°16'0 0.1
2019-Apr-23 07:30N 52°06' E 004°16'0 0.0
2019-Apr-23 07:00N 52°06' E 004°16'0 0.0
2019-Apr-23 06:30N 52°06' E 004°16'0 0.0
2019-Apr-23 05:54N 52°06' E 004°16'0 0.0
2019-Apr-23 05:24N 52°06' E 004°16'0 0.0
2019-Apr-23 05:00N 52°06' E 004°16'0 0.0
2019-Apr-23 04:27N 52°06' E 004°16'0 0.0
2019-Apr-23 04:00N 52°06' E 004°16'0 0.0
2019-Apr-23 03:27N 52°06' E 004°16'0 0.0
2019-Apr-23 03:00N 52°06' E 004°16'0 0.0
2019-Apr-23 02:30N 52°06' E 004°16'0 0.0
2019-Apr-23 02:00N 52°06' E 004°16'0 0.0
2019-Apr-23 01:30N 52°06' E 004°16'0 0.0
2019-Apr-23 00:57N 52°06' E 004°16'0 0.0
2019-Apr-23 00:30N 52°06' E 004°16'0 0.0
2019-Apr-23 00:00N 52°06' E 004°16'0 0.0
2019-Apr-22 23:30N 52°06' E 004°16'0 0.0
2019-Apr-22 23:00N 52°06' E 004°16'0 0.0
2019-Apr-22 22:30N 52°06' E 004°16'0 0.0
2019-Apr-22 21:57N 52°06' E 004°16'0 0.0
2019-Apr-22 21:30N 52°06' E 004°16'0 0.0
2019-Apr-22 20:51N 52°06' E 004°16'0 0.0
2019-Apr-22 20:30N 52°06' E 004°16'0 0.0
2019-Apr-22 20:00N 52°06' E 004°16'0 0.0
2019-Apr-22 19:30N 52°06' E 004°16'0 0.0
2019-Apr-22 18:54N 52°06' E 004°16'0 0.0
2019-Apr-22 18:27N 52°06' E 004°16'0 0.0
2019-Apr-22 18:00N 52°06' E 004°16'0 0.0
2019-Apr-22 17:30N 52°06' E 004°16'0 0.0
2019-Apr-22 17:00N 52°06' E 004°16'0 0.0
2019-Apr-22 16:30N 52°06' E 004°16'0 0.0
2019-Apr-22 16:00N 52°06' E 004°16'0 0.0
2019-Apr-22 15:30N 52°06' E 004°16'0 0.0
2019-Apr-22 14:57N 52°06' E 004°16'0 0.0
2019-Apr-22 14:30N 52°06' E 004°16'0 0.0
2019-Apr-22 13:51N 52°06' E 004°16'0 0.0
2019-Apr-22 13:27N 52°06' E 004°16'0 0.0
2019-Apr-22 12:57N 52°06' E 004°16'0 0.0
2019-Apr-22 12:27N 52°06' E 004°16'0 0.0
2019-Apr-22 12:00N 52°06' E 004°16'0 0.0
2019-Apr-22 11:27N 52°06' E 004°16'0 0.0
2019-Apr-22 11:00N 52°06' E 004°16'0 0.0
2019-Apr-22 10:30N 52°06' E 004°16'0 0.0
2019-Apr-22 10:00N 52°06' E 004°16'0 0.0
2019-Apr-22 09:27N 52°06' E 004°16'0 0.0
2019-Apr-22 09:00N 52°06' E 004°16'0 0.0
2019-Apr-22 08:18N 52°06' E 004°16'0 0.0
2019-Apr-22 07:39N 52°06' E 004°16'0 0.0
2019-Apr-22 07:30N 52°06' E 004°16'0 0.0
2019-Apr-22 05:57N 52°06' E 004°16'0 0.0
2019-Apr-22 05:27N 52°06' E 004°16'0 0.0
2019-Apr-22 04:51N 52°06' E 004°16'0 0.0
2019-Apr-22 04:30N 52°06' E 004°16'0 0.0
2019-Apr-22 03:57N 52°06' E 004°16'0 0.0
2019-Apr-22 03:30N 52°06' E 004°16'0 0.0
2019-Apr-22 03:00N 52°06' E 004°16'0 0.0
2019-Apr-22 02:30N 52°06' E 004°16'0 0.0
2019-Apr-22 01:57N 52°06' E 004°16'0 0.0
2019-Apr-22 01:27N 52°06' E 004°16'0 0.0
2019-Apr-22 00:54N 52°06' E 004°16'0 0.0
2019-Apr-22 00:30N 52°06' E 004°16'0 0.0
2019-Apr-22 00:00N 52°06' E 004°16'0 0.0
2019-Apr-21 23:18N 52°06' E 004°16'0 0.0
2019-Apr-21 22:54N 52°06' E 004°16'0 0.0
2019-Apr-21 22:21N 52°06' E 004°16'0 0.0
2019-Apr-21 21:57N 52°06' E 004°16'0 0.0
2019-Apr-21 21:27N 52°06' E 004°16'0 0.0
2019-Apr-21 21:00N 52°06' E 004°16'0 0.0
2019-Apr-21 20:30N 52°06' E 004°16'0 0.0
2019-Apr-21 20:00N 52°06' E 004°16'0 0.0
2019-Apr-21 19:30N 52°06' E 004°16'0 0.0
2019-Apr-21 19:00N 52°06' E 004°16'0 0.0
2019-Apr-21 18:30N 52°06' E 004°16'0 0.0
2019-Apr-21 18:00N 52°06' E 004°16'0 0.0
2019-Apr-21 17:30N 52°06' E 004°16'0 0.0
2019-Apr-21 17:00N 52°06' E 004°16'0 0.0
2019-Apr-21 16:30N 52°06' E 004°16'0 0.0
2019-Apr-21 16:00N 52°06' E 004°16'0 0.0
2019-Apr-21 15:27N 52°06' E 004°16'0 0.0
2019-Apr-21 15:00N 52°06' E 004°16'0 0.0
2019-Apr-21 14:30N 52°06' E 004°16'0 0.0
2019-Apr-21 14:00N 52°06' E 004°16'0 0.0
2019-Apr-21 13:30N 52°06' E 004°16'0 0.0
2019-Apr-21 13:00N 52°06' E 004°16'0 0.0
2019-Apr-21 12:27N 52°06' E 004°16'0 0.0
2019-Apr-21 12:00N 52°06' E 004°16'0 0.0
2019-Apr-21 11:30N 52°06' E 004°16'0 0.0
2019-Apr-21 11:00N 52°06' E 004°16'0 0.0
2019-Apr-21 10:30N 52°06' E 004°16'0 0.0
2019-Apr-21 09:57N 52°06' E 004°16'0 0.0
2019-Apr-21 09:30N 52°06' E 004°16'0 0.0
2019-Apr-21 09:00N 52°06' E 004°16'0 0.0
2019-Apr-21 08:24N 52°06' E 004°16'0 0.0
2019-Apr-21 07:57N 52°06' E 004°16'0 0.0
2019-Apr-21 07:30N 52°06' E 004°16'0 0.0
2019-Apr-21 06:54N 52°06' E 004°16'0 0.0
2019-Apr-21 06:27N 52°06' E 004°16'0 0.0
2019-Apr-21 06:00N 52°06' E 004°16'0 0.0
2019-Apr-21 05:30N 52°06' E 004°16'0 0.0
2019-Apr-21 04:57N 52°06' E 004°16'0 0.0
2019-Apr-21 04:27N 52°06' E 004°16'0 0.0
2019-Apr-21 03:57N 52°06' E 004°16'0 0.0
2019-Apr-21 03:27N 52°06' E 004°16'0 0.0
2019-Apr-21 03:00N 52°06' E 004°16'0 0.0
2019-Apr-21 02:30N 52°06' E 004°16'0 0.0
2019-Apr-21 02:00N 52°06' E 004°16'0 0.0
2019-Apr-21 01:30N 52°06' E 004°16'0 0.0
2019-Apr-21 01:00N 52°06' E 004°16'0 0.0
2019-Apr-21 00:30N 52°06' E 004°16'0 0.0
2019-Apr-21 00:00N 52°06' E 004°16'0 0.0
2019-Apr-20 23:30N 52°06' E 004°16'0 0.0
2019-Apr-20 23:00N 52°06' E 004°16'0 0.0
2019-Apr-20 22:30N 52°06' E 004°16'0 0.0
2019-Apr-20 22:00N 52°06' E 004°16'0 0.0
2019-Apr-20 21:30N 52°06' E 004°16'0 0.0
2019-Apr-20 21:00N 52°06' E 004°16'0 0.0
2019-Apr-20 20:18N 52°06' E 004°16'0 0.0
2019-Apr-20 19:57N 52°06' E 004°16'0 0.0
2019-Apr-20 19:27N 52°06' E 004°16'0 0.0
2019-Apr-20 19:00N 52°06' E 004°16'0 0.0
2019-Apr-20 18:30N 52°06' E 004°16'0 0.0
2019-Apr-20 18:00N 52°06' E 004°16'0 0.0
2019-Apr-20 17:27N 52°06' E 004°16'0 0.0
2019-Apr-20 17:00N 52°06' E 004°16'0 0.0
2019-Apr-20 16:30N 52°06' E 004°16'0 0.0
2019-Apr-20 16:00N 52°06' E 004°16'0 0.0
2019-Apr-20 15:30N 52°06' E 004°16'0 0.0
2019-Apr-20 14:57N 52°06' E 004°16'0 0.0
2019-Apr-20 14:27N 52°06' E 004°16'0 0.0
2019-Apr-20 14:00N 52°06' E 004°16'0 0.0
2019-Apr-20 13:30N 52°06' E 004°16'0 0.0
2019-Apr-20 13:00N 52°06' E 004°16'0 0.0
2019-Apr-20 12:24N 52°06' E 004°16'0 0.0
2019-Apr-20 12:00N 52°06' E 004°16'0 0.0
2019-Apr-20 11:21N 52°06' E 004°16'0 0.0
2019-Apr-20 11:00N 52°06' E 004°16'0 0.0
2019-Apr-20 10:27N 52°06' E 004°16'0 0.0
2019-Apr-20 09:57N 52°06' E 004°16'0 0.0
2019-Apr-20 09:30N 52°06' E 004°16'0 0.0
2019-Apr-20 09:00N 52°06' E 004°16'0 0.0
2019-Apr-20 08:30N 52°06' E 004°16'0 0.0
2019-Apr-20 08:00N 52°06' E 004°16'0 0.0
2019-Apr-20 07:30N 52°06' E 004°16'0 0.0
2019-Apr-20 07:00N 52°06' E 004°16'0 0.0
2019-Apr-20 06:30N 52°06' E 004°16'0 0.0
2019-Apr-20 05:51N 52°06' E 004°16'0 0.0
2019-Apr-20 05:30N 52°06' E 004°16'0 0.0
2019-Apr-20 05:00N 52°06' E 004°16'0 0.0
2019-Apr-20 04:27N 52°06' E 004°16'0 0.0
2019-Apr-20 04:00N 52°06' E 004°16'0 0.0
2019-Apr-20 03:30N 52°06' E 004°16'0 0.0
2019-Apr-20 02:57N 52°06' E 004°16'0 0.0
2019-Apr-20 02:30N 52°06' E 004°16'0 0.0
2019-Apr-20 02:00N 52°06' E 004°16'0 0.0
2019-Apr-20 01:30N 52°06' E 004°16'0 0.0
2019-Apr-20 00:57N 52°06' E 004°16'0 0.0
2019-Apr-20 00:30N 52°06' E 004°16'0 0.0
2019-Apr-20 00:00N 52°06' E 004°16'0 0.0
2019-Apr-19 23:30N 52°06' E 004°16'0 0.0
2019-Apr-19 23:00N 52°06' E 004°16'0 0.0
2019-Apr-19 22:27N 52°06' E 004°16'0 0.0
2019-Apr-19 22:00N 52°06' E 004°16'0 0.0
2019-Apr-19 21:30N 52°06' E 004°16'0 0.0
2019-Apr-19 20:54N 52°06' E 004°16'0 0.0
2019-Apr-19 20:30N 52°06' E 004°16'0 0.0
2019-Apr-19 20:00N 52°06' E 004°16'0 0.0
2019-Apr-19 19:30N 52°06' E 004°16'0 0.0
2019-Apr-19 19:00N 52°06' E 004°16'0 0.0
2019-Apr-19 18:27N 52°06' E 004°16'0 0.0
2019-Apr-19 17:57N 52°06' E 004°16'0 0.0
2019-Apr-19 17:30N 52°06' E 004°16'0 0.0
2019-Apr-19 17:00N 52°06' E 004°16'0 0.0
2019-Apr-19 16:30N 52°06' E 004°16'0 0.0
2019-Apr-19 16:00N 52°06' E 004°16'0 0.0
2019-Apr-19 15:30N 52°06' E 004°16'0 0.0
2019-Apr-19 15:00N 52°06' E 004°16'0 0.0
2019-Apr-19 14:30N 52°06' E 004°16'0 0.0
2019-Apr-19 14:00N 52°06' E 004°16'0 0.0
2019-Apr-19 13:30N 52°06' E 004°16'0 0.0
2019-Apr-19 12:57N 52°06' E 004°16'0 0.0
2019-Apr-19 12:30N 52°06' E 004°16'0 0.0
2019-Apr-19 12:00N 52°06' E 004°16'0 0.0
2019-Apr-19 11:30N 52°06' E 004°16'0 0.0
2019-Apr-19 10:57N 52°06' E 004°16'0 0.0
2019-Apr-19 10:30N 52°06' E 004°16'0 0.0
2019-Apr-19 09:57N 52°06' E 004°16'0 0.0
2019-Apr-19 09:30N 52°06' E 004°16'0 0.0
2019-Apr-19 09:00N 52°06' E 004°16'0 0.0
2019-Apr-19 08:30N 52°06' E 004°16'0 0.0
2019-Apr-19 07:57N 52°06' E 004°16'0 0.0
2019-Apr-19 07:30N 52°06' E 004°16'0 0.0
2019-Apr-19 06:51N 52°06' E 004°16'0 0.0
2019-Apr-19 06:27N 52°06' E 004°16'0 0.0
2019-Apr-19 06:00N 52°06' E 004°16'0 0.0
2019-Apr-19 05:24N 52°06' E 004°16'0 0.0
2019-Apr-19 05:00N 52°06' E 004°16'0 0.0
2019-Apr-19 04:27N 52°06' E 004°16'0 0.0
2019-Apr-19 03:57N 52°06' E 004°16'0 0.0
2019-Apr-19 03:27N 52°06' E 004°16'0 0.0
2019-Apr-19 02:57N 52°06' E 004°16'0 0.0
2019-Apr-19 02:30N 52°06' E 004°16'0 0.0
2019-Apr-19 02:00N 52°06' E 004°16'0 0.0
2019-Apr-19 01:30N 52°06' E 004°16'0 0.0
2019-Apr-19 01:00N 52°06' E 004°16'0 0.0
2019-Apr-19 00:30N 52°06' E 004°16'0 0.0
2019-Apr-19 00:00N 52°06' E 004°16'0 0.0
2019-Apr-18 23:27N 52°06' E 004°16'0 0.0
2019-Apr-18 23:00N 52°06' E 004°16'0 0.0
2019-Apr-18 22:30N 52°06' E 004°16'0 0.0
2019-Apr-18 22:00N 52°06' E 004°16'0 0.0
2019-Apr-18 21:30N 52°06' E 004°16'0 0.0
2019-Apr-18 21:00N 52°06' E 004°16'0 0.0
2019-Apr-18 20:27N 52°06' E 004°16'0 0.0
2019-Apr-18 19:57N 52°06' E 004°16'0 0.0
2019-Apr-18 19:30N 52°06' E 004°16'0 0.0
2019-Apr-18 19:00N 52°06' E 004°16'0 0.0
2019-Apr-18 18:30N 52°06' E 004°16'0 0.0
2019-Apr-18 18:00N 52°06' E 004°16'0 0.0
2019-Apr-18 17:30N 52°06' E 004°16'0 0.0
2019-Apr-18 17:00N 52°06' E 004°16'0 0.0
2019-Apr-18 16:30N 52°06' E 004°16'0 0.0
2019-Apr-18 15:54N 52°06' E 004°16'0 0.0
2019-Apr-18 15:27N 52°06' E 004°16'0 0.0
2019-Apr-18 15:00N 52°06' E 004°16'0 0.0
2019-Apr-18 14:30N 52°06' E 004°16'0 0.0
2019-Apr-18 14:00N 52°06' E 004°16'0 0.0
2019-Apr-18 13:27N 52°06' E 004°16'0 0.0
2019-Apr-18 13:00N 52°06' E 004°16'0 0.0
2019-Apr-18 12:27N 52°06' E 004°16'0 0.0
2019-Apr-18 12:00N 52°06' E 004°16'0 0.0
2019-Apr-18 11:27N 52°06' E 004°16'0 0.0
2019-Apr-18 11:00N 52°06' E 004°16'0 0.0
2019-Apr-18 10:30N 52°06' E 004°16'0 0.0
2019-Apr-18 10:00N 52°06' E 004°16'0 0.0
2019-Apr-18 09:30N 52°06' E 004°16'0 0.0
2019-Apr-18 09:00N 52°06' E 004°16'0 0.0
2019-Apr-18 08:30N 52°06' E 004°16'0 0.0
2019-Apr-18 07:57N 52°06' E 004°16'0 0.0
2019-Apr-18 07:30N 52°06' E 004°16'0 0.0
2019-Apr-18 07:00N 52°06' E 004°16'0 0.0
2019-Apr-18 06:30N 52°06' E 004°16'0 0.0
2019-Apr-18 06:00N 52°06' E 004°16'0 0.0
2019-Apr-18 05:30N 52°06' E 004°16'0 0.0
2019-Apr-18 05:00N 52°06' E 004°16'0 0.0
2019-Apr-18 04:30N 52°06' E 004°16'0 0.0
2019-Apr-18 04:00N 52°06' E 004°16'0 0.0
2019-Apr-18 03:27N 52°06' E 004°16'0 0.0
2019-Apr-18 02:57N 52°06' E 004°16'0 0.0
2019-Apr-18 02:30N 52°06' E 004°16'0 0.0
2019-Apr-18 02:00N 52°06' E 004°16'0 0.0
2019-Apr-18 01:30N 52°06' E 004°16'0 0.0
2019-Apr-18 01:00N 52°06' E 004°16'0 0.0
2019-Apr-18 00:30N 52°06' E 004°16'0 0.0
2019-Apr-17 23:57N 52°06' E 004°16'0 0.0
2019-Apr-17 23:30N 52°06' E 004°16'0 0.0
2019-Apr-17 23:00N 52°06' E 004°16'0 0.0
2019-Apr-17 22:30N 52°06' E 004°16'0 0.0
2019-Apr-17 22:00N 52°06' E 004°16'0 0.0
2019-Apr-17 21:30N 52°06' E 004°16'0 0.0
2019-Apr-17 21:00N 52°06' E 004°16'0 0.0
2019-Apr-17 20:30N 52°06' E 004°16'0 0.0
2019-Apr-17 19:30N 52°06' E 004°16'0 0.0
2019-Apr-17 19:00N 52°06' E 004°16'0 0.0
2019-Apr-17 18:30N 52°06' E 004°16'0 0.0
2019-Apr-17 18:00N 52°06' E 004°16'0 0.0
2019-Apr-17 17:30N 52°06' E 004°16'0 0.0
2019-Apr-17 17:00N 52°06' E 004°16'0 0.0
2019-Apr-17 16:30N 52°06' E 004°16'1 2.2
2019-Apr-17 16:01N 52°07' E 004°15'612.2
2019-Apr-17 15:31N 52°12' E 004°09'2 4.4
2019-Apr-17 15:01N 52°14' E 004°07'4 8.5
2019-Apr-17 14:30N 52°17' E 004°03'510.6
2019-Apr-17 14:01N 52°22' E 003°59'510.5
2019-Apr-17 13:30N 52°26' E 003°53'2 4.2
2019-Apr-17 13:00N 52°27' E 003°50'0 0.2
2019-Apr-17 12:29N 52°27' E 003°50'1 1.3
2019-Apr-17 12:00N 52°26' E 003°51'1 2.6
2019-Apr-17 11:30N 52°26' E 003°49'1 2.7
2019-Apr-17 11:00N 52°24' E 003°49'0 0.8
2019-Apr-17 10:29N 52°25' E 003°50'1 2.5
2019-Apr-17 09:59N 52°26' E 003°51'0 0.7
2019-Apr-17 09:29N 52°26' E 003°52'4 8.9
2019-Apr-17 09:01N 52°22' E 003°54'611.6
2019-Apr-17 08:31N 52°17' E 003°60'611.5
2019-Apr-17 08:01N 52°12' E 004°05'611.4
2019-Apr-17 07:31N 52°08' E 004°12'3 6.4
2019-Apr-17 06:59N 52°06' E 004°16'0 0.0
2019-Apr-17 06:29N 52°06' E 004°16'0 0.0
2019-Apr-17 05:59N 52°06' E 004°16'0 0.0
2019-Apr-17 05:29N 52°06' E 004°16'0 0.0
2019-Apr-17 04:59N 52°06' E 004°16'0 0.0
2019-Apr-17 04:30N 52°06' E 004°16'0 0.0
2019-Apr-17 03:59N 52°06' E 004°16'0 0.0
2019-Apr-17 03:26N 52°06' E 004°16'0 0.0
2019-Apr-17 02:59N 52°06' E 004°16'0 0.0
2019-Apr-17 02:29N 52°06' E 004°16'0 0.0
2019-Apr-17 02:00N 52°06' E 004°16'0 0.0
2019-Apr-17 01:29N 52°06' E 004°16'0 0.0
2019-Apr-17 00:59N 52°06' E 004°16'0 0.0
2019-Apr-17 00:29N 52°06' E 004°16'0 0.0
2019-Apr-16 23:59N 52°06' E 004°16'0 0.0
2019-Apr-16 23:29N 52°06' E 004°16'0 0.0
2019-Apr-16 22:59N 52°06' E 004°16'0 0.0
2019-Apr-16 22:29N 52°06' E 004°16'0 0.0
2019-Apr-16 21:59N 52°06' E 004°16'0 0.0
2019-Apr-16 21:29N 52°06' E 004°16'0 0.0
2019-Apr-16 20:59N 52°06' E 004°16'0 0.0
2019-Apr-16 20:29N 52°06' E 004°16'0 0.0
2019-Apr-16 20:00N 52°06' E 004°16'0 0.0
2019-Apr-16 19:29N 52°06' E 004°16'0 0.0
2019-Apr-16 18:56N 52°06' E 004°16'0 0.0
2019-Apr-16 18:29N 52°06' E 004°16'0 0.0
2019-Apr-16 17:59N 52°06' E 004°16'0 0.0
2019-Apr-16 17:30N 52°06' E 004°16'2 4.4
2019-Apr-16 17:00N 52°08' E 004°14'612.9
2019-Apr-16 16:30N 52°13' E 004°08'612.7
2019-Apr-16 16:01N 52°19' E 004°03'612.1
2019-Apr-16 15:30N 52°24' E 003°58'2 5.0
2019-Apr-16 15:01N 52°24' E 004°02'0 0.5
2019-Apr-16 14:30N 52°24' E 004°01'1 2.5
2019-Apr-16 14:00N 52°23' E 004°00'1 1.2
2019-Apr-16 13:31N 52°23' E 004°01'2 3.4
2019-Apr-16 13:01N 52°21' E 003°59'1 2.8
2019-Apr-16 12:31N 52°20' E 003°57'1 2.2
2019-Apr-16 12:00N 52°19' E 003°57'1 1.4
2019-Apr-16 11:30N 52°18' E 003°57'2 3.1
2019-Apr-16 11:00N 52°17' E 003°55'1 1.8
2019-Apr-16 10:31N 52°17' E 003°57'1 2.4
2019-Apr-16 10:00N 52°16' E 003°56'1 2.2
2019-Apr-16 09:30N 52°15' E 003°57'1 2.3
2019-Apr-16 09:00N 52°14' E 003°59'0 0.8
2019-Apr-16 08:31N 52°15' E 003°59'1 1.3
2019-Apr-16 08:00N 52°14' E 003°59'1 1.6
2019-Apr-16 07:30N 52°15' E 003°60'0 0.1
2019-Apr-16 07:00N 52°15' E 003°60'1 1.1
2019-Apr-16 06:31N 52°15' E 004°00'611.0
2019-Apr-16 06:00N 52°11' E 004°07'611.7
2019-Apr-16 05:30N 52°07' E 004°14'2 3.0
2019-Apr-16 04:59N 52°06' E 004°16'0 0.0
2019-Apr-16 04:29N 52°06' E 004°16'0 0.0
2019-Apr-16 03:56N 52°06' E 004°16'0 0.0
2019-Apr-16 03:29N 52°06' E 004°16'0 0.0
2019-Apr-16 02:59N 52°06' E 004°16'0 0.0
2019-Apr-16 02:29N 52°06' E 004°16'0 0.0
2019-Apr-16 01:59N 52°06' E 004°16'0 0.0
2019-Apr-16 01:29N 52°06' E 004°16'0 0.0
2019-Apr-16 00:59N 52°06' E 004°16'0 0.0
2019-Apr-16 00:29N 52°06' E 004°16'0 0.0
2019-Apr-15 23:59N 52°06' E 004°16'0 0.0
2019-Apr-15 23:26N 52°06' E 004°16'0 0.0
2019-Apr-15 22:59N 52°06' E 004°16'0 0.0
2019-Apr-15 22:29N 52°06' E 004°16'0 0.0
2019-Apr-15 21:56N 52°06' E 004°16'0 0.0
2019-Apr-15 21:29N 52°06' E 004°16'0 0.0
2019-Apr-15 20:59N 52°06' E 004°16'0 0.0
2019-Apr-15 20:29N 52°06' E 004°16'0 0.0
2019-Apr-15 19:59N 52°06' E 004°16'0 0.0
2019-Apr-15 19:29N 52°06' E 004°16'0 0.0
2019-Apr-15 18:59N 52°06' E 004°16'0 0.0
2019-Apr-15 18:29N 52°06' E 004°16'0 0.0
2019-Apr-15 17:59N 52°06' E 004°16'0 0.0
2019-Apr-15 17:29N 52°06' E 004°16'0 0.0
2019-Apr-15 16:59N 52°06' E 004°16'0 0.0
2019-Apr-15 16:29N 52°06' E 004°16'0 0.0
2019-Apr-15 15:56N 52°06' E 004°16'0 0.0
2019-Apr-15 15:29N 52°06' E 004°16'0 0.0
2019-Apr-15 14:59N 52°06' E 004°16'0 0.0
2019-Apr-15 14:29N 52°06' E 004°16'0 0.0
2019-Apr-15 13:59N 52°06' E 004°16'0 0.0
2019-Apr-15 13:26N 52°06' E 004°16'0 0.0
2019-Apr-15 12:59N 52°06' E 004°16'0 0.0
2019-Apr-15 12:29N 52°06' E 004°16'0 0.0
2019-Apr-15 11:59N 52°06' E 004°16'0 0.0
2019-Apr-15 11:29N 52°06' E 004°16'0 0.0
2019-Apr-15 10:59N 52°06' E 004°16'0 0.0
2019-Apr-15 10:29N 52°06' E 004°16'0 0.0
2019-Apr-15 09:59N 52°06' E 004°16'0 0.0
2019-Apr-15 09:29N 52°06' E 004°16'0 0.0
2019-Apr-15 08:59N 52°06' E 004°16'0 0.0
2019-Apr-15 08:29N 52°06' E 004°16'0 0.0
2019-Apr-15 07:59N 52°06' E 004°16'0 0.0
2019-Apr-15 07:29N 52°06' E 004°16'0 0.0
2019-Apr-15 06:59N 52°06' E 004°16'0 0.0
2019-Apr-15 06:29N 52°06' E 004°16'0 0.0
2019-Apr-15 05:59N 52°06' E 004°16'0 0.0
2019-Apr-15 05:29N 52°06' E 004°16'0 0.0
2019-Apr-15 04:59N 52°06' E 004°16'0 0.0
2019-Apr-15 04:29N 52°06' E 004°16'0 0.0
2019-Apr-15 03:59N 52°06' E 004°16'0 0.0
2019-Apr-15 03:29N 52°06' E 004°16'0 0.0
2019-Apr-15 02:59N 52°06' E 004°16'0 0.0
2019-Apr-15 02:29N 52°06' E 004°16'0 0.0
2019-Apr-15 01:59N 52°06' E 004°16'0 0.0
2019-Apr-15 01:29N 52°06' E 004°16'0 0.0
2019-Apr-15 00:59N 52°06' E 004°16'0 0.0
2019-Apr-15 00:29N 52°06' E 004°16'0 0.0
2019-Apr-14 23:59N 52°06' E 004°16'0 0.0
2019-Apr-14 23:29N 52°06' E 004°16'0 0.0
2019-Apr-14 22:59N 52°06' E 004°16'0 0.0
2019-Apr-14 22:29N 52°06' E 004°16'0 0.0
2019-Apr-14 21:59N 52°06' E 004°16'0 0.0
2019-Apr-14 21:29N 52°06' E 004°16'0 0.0
2019-Apr-14 20:59N 52°06' E 004°16'0 0.0
2019-Apr-14 20:29N 52°06' E 004°16'0 0.0
2019-Apr-14 19:56N 52°06' E 004°16'0 0.0
2019-Apr-14 19:26N 52°06' E 004°16'0 0.0
2019-Apr-14 18:59N 52°06' E 004°16'0 0.0
2019-Apr-14 18:23N 52°06' E 004°16'0 0.0
2019-Apr-14 17:59N 52°06' E 004°16'0 0.0
2019-Apr-14 17:29N 52°06' E 004°16'0 0.0
2019-Apr-14 16:59N 52°06' E 004°16'0 0.0
2019-Apr-14 16:29N 52°06' E 004°16'0 0.0
2019-Apr-14 15:59N 52°06' E 004°16'0 0.0
2019-Apr-14 15:29N 52°06' E 004°16'0 0.0
2019-Apr-14 14:59N 52°06' E 004°16'0 0.0
2019-Apr-14 14:29N 52°06' E 004°16'0 0.0
2019-Apr-14 13:59N 52°06' E 004°16'0 0.0
2019-Apr-14 13:29N 52°06' E 004°16'0 0.0
2019-Apr-14 12:59N 52°06' E 004°16'0 0.0
2019-Apr-14 12:29N 52°06' E 004°16'0 0.0
2019-Apr-14 11:56N 52°06' E 004°16'0 0.0
2019-Apr-14 11:29N 52°06' E 004°16'0 0.0
2019-Apr-14 10:59N 52°06' E 004°16'0 0.0
2019-Apr-14 10:29N 52°06' E 004°16'0 0.0
2019-Apr-14 09:59N 52°06' E 004°16'0 0.0
2019-Apr-14 09:29N 52°06' E 004°16'0 0.0
2019-Apr-14 08:59N 52°06' E 004°16'  
Track history (hours):
 
Tides and Currents Weather Stations Pressure Air Temp Water Temp Dewpoint Dewpoint Depression Visibility Wind Speed Wind Dir Waves Ship Positions

Oceanographic research ship Arca (Netherlands)

Detailed information on ship capabilities available from University of Delaware's Ocean Information Center.

Last reported at 2019-Apr-24 08:49 UTC. Time now 2019-Apr-24 22:20 UTC.
Position N 53°34' E 005°28'.

Length 83 m; draft 5 m.

Type: Law enforcement. MMSI: 244454000.

Date/timePositionNaut miles runAvg speedWind from/ knotsBaromVisibWave heightAir tempDewpointWater temp
2019-Apr-24 08:49N 53°34' E 005°28'2 1.5
2019-Apr-24 07:19N 53°33' E 005°24'2 2.1
2019-Apr-24 06:15N 53°34' E 005°28'3 0.4
2019-Apr-23 22:08N 53°32' E 005°25'0 0.2
2019-Apr-23 21:21N 53°32' E 005°25'0 0.2
2019-Apr-23 18:39N 53°31' E 005°25'13 7.3
2019-Apr-23 16:48N 53°26' E 005°05'410.3
2019-Apr-23 16:27N 53°24' E 004°59'510.2
2019-Apr-23 15:57N 53°20' E 004°53'2410.4
2019-Apr-23 13:41N 53°00' E 004°32'210.8
2019-Apr-23 13:30N 52°59' E 004°31'510.9
2019-Apr-23 13:00N 52°53' E 004°29'510.8
2019-Apr-23 12:30N 52°48' E 004°28'510.9
2019-Apr-23 12:00N 52°43' E 004°29'510.7
2019-Apr-23 11:30N 52°37' E 004°29'510.3
2019-Apr-23 11:00N 52°32' E 004°27'510.5
2019-Apr-23 10:30N 52°27' E 004°25'510.7
2019-Apr-23 10:00N 52°22' E 004°22'511.0
2019-Apr-23 09:30N 52°17' E 004°19'611.2
2019-Apr-23 09:00N 52°12' E 004°16'4 8.5
2019-Apr-23 08:31N 52°08' E 004°12'3 6.6
2019-Apr-23 08:00N 52°06' E 004°16'0 0.1
2019-Apr-23 07:30N 52°06' E 004°16'0 0.0
2019-Apr-23 07:00N 52°06' E 004°16'0 0.0
2019-Apr-23 06:30N 52°06' E 004°16'0 0.0
2019-Apr-23 05:54N 52°06' E 004°16'0 0.0
2019-Apr-23 05:24N 52°06' E 004°16'0 0.0
2019-Apr-23 05:00N 52°06' E 004°16'0 0.0
2019-Apr-23 04:27N 52°06' E 004°16'0 0.0
2019-Apr-23 04:00N 52°06' E 004°16'0 0.0
2019-Apr-23 03:27N 52°06' E 004°16'0 0.0
2019-Apr-23 03:00N 52°06' E 004°16'0 0.0
2019-Apr-23 02:30N 52°06' E 004°16'0 0.0
2019-Apr-23 02:00N 52°06' E 004°16'0 0.0
2019-Apr-23 01:30N 52°06' E 004°16'0 0.0
2019-Apr-23 00:57N 52°06' E 004°16'0 0.0
2019-Apr-23 00:30N 52°06' E 004°16'0 0.0
2019-Apr-23 00:00N 52°06' E 004°16'0 0.0
2019-Apr-22 23:30N 52°06' E 004°16'0 0.0
2019-Apr-22 23:00N 52°06' E 004°16'0 0.0
2019-Apr-22 22:30N 52°06' E 004°16'0 0.0
2019-Apr-22 21:57N 52°06' E 004°16'0 0.0
2019-Apr-22 21:30N 52°06' E 004°16'0 0.0
2019-Apr-22 20:51N 52°06' E 004°16'0 0.0
2019-Apr-22 20:30N 52°06' E 004°16'0 0.0
2019-Apr-22 20:00N 52°06' E 004°16'0 0.0
2019-Apr-22 19:30N 52°06' E 004°16'0 0.0
2019-Apr-22 18:54N 52°06' E 004°16'0 0.0
2019-Apr-22 18:27N 52°06' E 004°16'0 0.0
2019-Apr-22 18:00N 52°06' E 004°16'0 0.0
2019-Apr-22 17:30N 52°06' E 004°16'0 0.0
2019-Apr-22 17:00N 52°06' E 004°16'0 0.0
2019-Apr-22 16:30N 52°06' E 004°16'0 0.0
2019-Apr-22 16:00N 52°06' E 004°16'0 0.0
2019-Apr-22 15:30N 52°06' E 004°16'0 0.0
2019-Apr-22 14:57N 52°06' E 004°16'0 0.0
2019-Apr-22 14:30N 52°06' E 004°16'0 0.0
2019-Apr-22 13:51N 52°06' E 004°16'0 0.0
2019-Apr-22 13:27N 52°06' E 004°16'0 0.0
2019-Apr-22 12:57N 52°06' E 004°16'0 0.0
2019-Apr-22 12:27N 52°06' E 004°16'0 0.0
2019-Apr-22 12:00N 52°06' E 004°16'0 0.0
2019-Apr-22 11:27N 52°06' E 004°16'0 0.0
2019-Apr-22 11:00N 52°06' E 004°16'0 0.0
2019-Apr-22 10:30N 52°06' E 004°16'0 0.0
2019-Apr-22 10:00N 52°06' E 004°16'0 0.0
2019-Apr-22 09:27N 52°06' E 004°16'0 0.0
2019-Apr-22 09:00N 52°06' E 004°16'0 0.0
2019-Apr-22 08:18N 52°06' E 004°16'0 0.0
2019-Apr-22 07:39N 52°06' E 004°16'0 0.0
2019-Apr-22 07:30N 52°06' E 004°16'0 0.0
2019-Apr-22 05:57N 52°06' E 004°16'0 0.0
2019-Apr-22 05:27N 52°06' E 004°16'0 0.0
2019-Apr-22 04:51N 52°06' E 004°16'0 0.0
2019-Apr-22 04:30N 52°06' E 004°16'0 0.0
2019-Apr-22 03:57N 52°06' E 004°16'0 0.0
2019-Apr-22 03:30N 52°06' E 004°16'0 0.0
2019-Apr-22 03:00N 52°06' E 004°16'0 0.0
2019-Apr-22 02:30N 52°06' E 004°16'0 0.0
2019-Apr-22 01:57N 52°06' E 004°16'0 0.0
2019-Apr-22 01:27N 52°06' E 004°16'0 0.0
2019-Apr-22 00:54N 52°06' E 004°16'0 0.0
2019-Apr-22 00:30N 52°06' E 004°16'0 0.0
2019-Apr-22 00:00N 52°06' E 004°16'0 0.0
2019-Apr-21 23:18N 52°06' E 004°16'0 0.0
2019-Apr-21 22:54N 52°06' E 004°16'0 0.0
2019-Apr-21 22:21N 52°06' E 004°16'0 0.0
2019-Apr-21 21:57N 52°06' E 004°16'0 0.0
2019-Apr-21 21:27N 52°06' E 004°16'0 0.0
2019-Apr-21 21:00N 52°06' E 004°16'0 0.0
2019-Apr-21 20:30N 52°06' E 004°16'0 0.0
2019-Apr-21 20:00N 52°06' E 004°16'0 0.0
2019-Apr-21 19:30N 52°06' E 004°16'0 0.0
2019-Apr-21 19:00N 52°06' E 004°16'0 0.0
2019-Apr-21 18:30N 52°06' E 004°16'0 0.0
2019-Apr-21 18:00N 52°06' E 004°16'0 0.0
2019-Apr-21 17:30N 52°06' E 004°16'0 0.0
2019-Apr-21 17:00N 52°06' E 004°16'0 0.0
2019-Apr-21 16:30N 52°06' E 004°16'0 0.0
2019-Apr-21 16:00N 52°06' E 004°16'0 0.0
2019-Apr-21 15:27N 52°06' E 004°16'0 0.0
2019-Apr-21 15:00N 52°06' E 004°16'0 0.0
2019-Apr-21 14:30N 52°06' E 004°16'0 0.0
2019-Apr-21 14:00N 52°06' E 004°16'0 0.0
2019-Apr-21 13:30N 52°06' E 004°16'0 0.0
2019-Apr-21 13:00N 52°06' E 004°16'0 0.0
2019-Apr-21 12:27N 52°06' E 004°16'0 0.0
2019-Apr-21 12:00N 52°06' E 004°16'0 0.0
2019-Apr-21 11:30N 52°06' E 004°16'0 0.0
2019-Apr-21 11:00N 52°06' E 004°16'0 0.0
2019-Apr-21 10:30N 52°06' E 004°16'0 0.0
2019-Apr-21 09:57N 52°06' E 004°16'0 0.0
2019-Apr-21 09:30N 52°06' E 004°16'0 0.0
2019-Apr-21 09:00N 52°06' E 004°16'0 0.0
2019-Apr-21 08:24N 52°06' E 004°16'0 0.0
2019-Apr-21 07:57N 52°06' E 004°16'0 0.0
2019-Apr-21 07:30N 52°06' E 004°16'0 0.0
2019-Apr-21 06:54N 52°06' E 004°16'0 0.0
2019-Apr-21 06:27N 52°06' E 004°16'0 0.0
2019-Apr-21 06:00N 52°06' E 004°16'0 0.0
2019-Apr-21 05:30N 52°06' E 004°16'0 0.0
2019-Apr-21 04:57N 52°06' E 004°16'0 0.0
2019-Apr-21 04:27N 52°06' E 004°16'0 0.0
2019-Apr-21 03:57N 52°06' E 004°16'0 0.0
2019-Apr-21 03:27N 52°06' E 004°16'0 0.0
2019-Apr-21 03:00N 52°06' E 004°16'0 0.0
2019-Apr-21 02:30N 52°06' E 004°16'0 0.0
2019-Apr-21 02:00N 52°06' E 004°16'0 0.0
2019-Apr-21 01:30N 52°06' E 004°16'0 0.0
2019-Apr-21 01:00N 52°06' E 004°16'0 0.0
2019-Apr-21 00:30N 52°06' E 004°16'0 0.0
2019-Apr-21 00:00N 52°06' E 004°16'0 0.0
2019-Apr-20 23:30N 52°06' E 004°16'0 0.0
2019-Apr-20 23:00N 52°06' E 004°16'0 0.0
2019-Apr-20 22:30N 52°06' E 004°16'0 0.0
2019-Apr-20 22:00N 52°06' E 004°16'0 0.0
2019-Apr-20 21:30N 52°06' E 004°16'0 0.0
2019-Apr-20 21:00N 52°06' E 004°16'0 0.0
2019-Apr-20 20:18N 52°06' E 004°16'0 0.0
2019-Apr-20 19:57N 52°06' E 004°16'0 0.0
2019-Apr-20 19:27N 52°06' E 004°16'0 0.0
2019-Apr-20 19:00N 52°06' E 004°16'0 0.0
2019-Apr-20 18:30N 52°06' E 004°16'0 0.0
2019-Apr-20 18:00N 52°06' E 004°16'0 0.0
2019-Apr-20 17:27N 52°06' E 004°16'0 0.0
2019-Apr-20 17:00N 52°06' E 004°16'0 0.0
2019-Apr-20 16:30N 52°06' E 004°16'0 0.0
2019-Apr-20 16:00N 52°06' E 004°16'0 0.0
2019-Apr-20 15:30N 52°06' E 004°16'0 0.0
2019-Apr-20 14:57N 52°06' E 004°16'0 0.0
2019-Apr-20 14:27N 52°06' E 004°16'0 0.0
2019-Apr-20 14:00N 52°06' E 004°16'0 0.0
2019-Apr-20 13:30N 52°06' E 004°16'0 0.0
2019-Apr-20 13:00N 52°06' E 004°16'0 0.0
2019-Apr-20 12:24N 52°06' E 004°16'0 0.0
2019-Apr-20 12:00N 52°06' E 004°16'0 0.0
2019-Apr-20 11:21N 52°06' E 004°16'0 0.0
2019-Apr-20 11:00N 52°06' E 004°16'0 0.0
2019-Apr-20 10:27N 52°06' E 004°16'0 0.0
2019-Apr-20 09:57N 52°06' E 004°16'0 0.0
2019-Apr-20 09:30N 52°06' E 004°16'0 0.0
2019-Apr-20 09:00N 52°06' E 004°16'0 0.0
2019-Apr-20 08:30N 52°06' E 004°16'0 0.0
2019-Apr-20 08:00N 52°06' E 004°16'0 0.0
2019-Apr-20 07:30N 52°06' E 004°16'0 0.0
2019-Apr-20 07:00N 52°06' E 004°16'0 0.0
2019-Apr-20 06:30N 52°06' E 004°16'0 0.0
2019-Apr-20 05:51N 52°06' E 004°16'0 0.0
2019-Apr-20 05:30N 52°06' E 004°16'0 0.0
2019-Apr-20 05:00N 52°06' E 004°16'0 0.0
2019-Apr-20 04:27N 52°06' E 004°16'0 0.0
2019-Apr-20 04:00N 52°06' E 004°16'0 0.0
2019-Apr-20 03:30N 52°06' E 004°16'0 0.0
2019-Apr-20 02:57N 52°06' E 004°16'0 0.0
2019-Apr-20 02:30N 52°06' E 004°16'0 0.0
2019-Apr-20 02:00N 52°06' E 004°16'0 0.0
2019-Apr-20 01:30N 52°06' E 004°16'0 0.0
2019-Apr-20 00:57N 52°06' E 004°16'0 0.0
2019-Apr-20 00:30N 52°06' E 004°16'0 0.0
2019-Apr-20 00:00N 52°06' E 004°16'0 0.0
2019-Apr-19 23:30N 52°06' E 004°16'0 0.0
2019-Apr-19 23:00N 52°06' E 004°16'0 0.0
2019-Apr-19 22:27N 52°06' E 004°16'0 0.0
2019-Apr-19 22:00N 52°06' E 004°16'0 0.0
2019-Apr-19 21:30N 52°06' E 004°16'0 0.0
2019-Apr-19 20:54N 52°06' E 004°16'0 0.0
2019-Apr-19 20:30N 52°06' E 004°16'0 0.0
2019-Apr-19 20:00N 52°06' E 004°16'0 0.0
2019-Apr-19 19:30N 52°06' E 004°16'0 0.0
2019-Apr-19 19:00N 52°06' E 004°16'0 0.0
2019-Apr-19 18:27N 52°06' E 004°16'0 0.0
2019-Apr-19 17:57N 52°06' E 004°16'0 0.0
2019-Apr-19 17:30N 52°06' E 004°16'0 0.0
2019-Apr-19 17:00N 52°06' E 004°16'0 0.0
2019-Apr-19 16:30N 52°06' E 004°16'0 0.0
2019-Apr-19 16:00N 52°06' E 004°16'0 0.0
2019-Apr-19 15:30N 52°06' E 004°16'0 0.0
2019-Apr-19 15:00N 52°06' E 004°16'0 0.0
2019-Apr-19 14:30N 52°06' E 004°16'0 0.0
2019-Apr-19 14:00N 52°06' E 004°16'0 0.0
2019-Apr-19 13:30N 52°06' E 004°16'0 0.0
2019-Apr-19 12:57N 52°06' E 004°16'0 0.0
2019-Apr-19 12:30N 52°06' E 004°16'0 0.0
2019-Apr-19 12:00N 52°06' E 004°16'0 0.0
2019-Apr-19 11:30N 52°06' E 004°16'0 0.0
2019-Apr-19 10:57N 52°06' E 004°16'0 0.0
2019-Apr-19 10:30N 52°06' E 004°16'0 0.0
2019-Apr-19 09:57N 52°06' E 004°16'0 0.0
2019-Apr-19 09:30N 52°06' E 004°16'0 0.0
2019-Apr-19 09:00N 52°06' E 004°16'0 0.0
2019-Apr-19 08:30N 52°06' E 004°16'0 0.0
2019-Apr-19 07:57N 52°06' E 004°16'0 0.0
2019-Apr-19 07:30N 52°06' E 004°16'0 0.0
2019-Apr-19 06:51N 52°06' E 004°16'0 0.0
2019-Apr-19 06:27N 52°06' E 004°16'0 0.0
2019-Apr-19 06:00N 52°06' E 004°16'0 0.0
2019-Apr-19 05:24N 52°06' E 004°16'0 0.0
2019-Apr-19 05:00N 52°06' E 004°16'0 0.0
2019-Apr-19 04:27N 52°06' E 004°16'0 0.0
2019-Apr-19 03:57N 52°06' E 004°16'0 0.0
2019-Apr-19 03:27N 52°06' E 004°16'0 0.0
2019-Apr-19 02:57N 52°06' E 004°16'0 0.0
2019-Apr-19 02:30N 52°06' E 004°16'0 0.0
2019-Apr-19 02:00N 52°06' E 004°16'0 0.0
2019-Apr-19 01:30N 52°06' E 004°16'0 0.0
2019-Apr-19 01:00N 52°06' E 004°16'0 0.0
2019-Apr-19 00:30N 52°06' E 004°16'0 0.0
2019-Apr-19 00:00N 52°06' E 004°16'0 0.0
2019-Apr-18 23:27N 52°06' E 004°16'0 0.0
2019-Apr-18 23:00N 52°06' E 004°16'0 0.0
2019-Apr-18 22:30N 52°06' E 004°16'0 0.0
2019-Apr-18 22:00N 52°06' E 004°16'0 0.0
2019-Apr-18 21:30N 52°06' E 004°16'0 0.0
2019-Apr-18 21:00N 52°06' E 004°16'0 0.0
2019-Apr-18 20:27N 52°06' E 004°16'0 0.0
2019-Apr-18 19:57N 52°06' E 004°16'0 0.0
2019-Apr-18 19:30N 52°06' E 004°16'0 0.0
2019-Apr-18 19:00N 52°06' E 004°16'0 0.0
2019-Apr-18 18:30N 52°06' E 004°16'0 0.0
2019-Apr-18 18:00N 52°06' E 004°16'0 0.0
2019-Apr-18 17:30N 52°06' E 004°16'0 0.0
2019-Apr-18 17:00N 52°06' E 004°16'0 0.0
2019-Apr-18 16:30N 52°06' E 004°16'0 0.0
2019-Apr-18 15:54N 52°06' E 004°16'0 0.0
2019-Apr-18 15:27N 52°06' E 004°16'0 0.0
2019-Apr-18 15:00N 52°06' E 004°16'0 0.0
2019-Apr-18 14:30N 52°06' E 004°16'0 0.0
2019-Apr-18 14:00N 52°06' E 004°16'0 0.0
2019-Apr-18 13:27N 52°06' E 004°16'0 0.0
2019-Apr-18 13:00N 52°06' E 004°16'0 0.0
2019-Apr-18 12:27N 52°06' E 004°16'0 0.0
2019-Apr-18 12:00N 52°06' E 004°16'0 0.0
2019-Apr-18 11:27N 52°06' E 004°16'0 0.0
2019-Apr-18 11:00N 52°06' E 004°16'0 0.0
2019-Apr-18 10:30N 52°06' E 004°16'0 0.0
2019-Apr-18 10:00N 52°06' E 004°16'0 0.0
2019-Apr-18 09:30N 52°06' E 004°16'0 0.0
2019-Apr-18 09:00N 52°06' E 004°16'0 0.0
2019-Apr-18 08:30N 52°06' E 004°16'0 0.0
2019-Apr-18 07:57N 52°06' E 004°16'0 0.0
2019-Apr-18 07:30N 52°06' E 004°16'0 0.0
2019-Apr-18 07:00N 52°06' E 004°16'0 0.0
2019-Apr-18 06:30N 52°06' E 004°16'0 0.0
2019-Apr-18 06:00N 52°06' E 004°16'0 0.0
2019-Apr-18 05:30N 52°06' E 004°16'0 0.0
2019-Apr-18 05:00N 52°06' E 004°16'0 0.0
2019-Apr-18 04:30N 52°06' E 004°16'0 0.0
2019-Apr-18 04:00N 52°06' E 004°16'0 0.0
2019-Apr-18 03:27N 52°06' E 004°16'0 0.0
2019-Apr-18 02:57N 52°06' E 004°16'0 0.0
2019-Apr-18 02:30N 52°06' E 004°16'0 0.0
2019-Apr-18 02:00N 52°06' E 004°16'0 0.0
2019-Apr-18 01:30N 52°06' E 004°16'0 0.0
2019-Apr-18 01:00N 52°06' E 004°16'0 0.0
2019-Apr-18 00:30N 52°06' E 004°16'0 0.0
2019-Apr-17 23:57N 52°06' E 004°16'0 0.0
2019-Apr-17 23:30N 52°06' E 004°16'0 0.0
2019-Apr-17 23:00N 52°06' E 004°16'0 0.0
2019-Apr-17 22:30N 52°06' E 004°16'0 0.0
2019-Apr-17 22:00N 52°06' E 004°16'0 0.0
2019-Apr-17 21:30N 52°06' E 004°16'0 0.0
2019-Apr-17 21:00N 52°06' E 004°16'0 0.0
2019-Apr-17 20:30N 52°06' E 004°16'0 0.0
2019-Apr-17 19:30N 52°06' E 004°16'0 0.0
2019-Apr-17 19:00N 52°06' E 004°16'0 0.0
2019-Apr-17 18:30N 52°06' E 004°16'0 0.0
2019-Apr-17 18:00N 52°06' E 004°16'0 0.0
2019-Apr-17 17:30N 52°06' E 004°16'0 0.0
2019-Apr-17 17:00N 52°06' E 004°16'0 0.0
2019-Apr-17 16:30N 52°06' E 004°16'1 2.2
2019-Apr-17 16:01N 52°07' E 004°15'612.2
2019-Apr-17 15:31N 52°12' E 004°09'2 4.4
2019-Apr-17 15:01N 52°14' E 004°07'4 8.5
2019-Apr-17 14:30N 52°17' E 004°03'510.6
2019-Apr-17 14:01N 52°22' E 003°59'510.5
2019-Apr-17 13:30N 52°26' E 003°53'2 4.2
2019-Apr-17 13:00N 52°27' E 003°50'0 0.2
2019-Apr-17 12:29N 52°27' E 003°50'1 1.3
2019-Apr-17 12:00N 52°26' E 003°51'1 2.6
2019-Apr-17 11:30N 52°26' E 003°49'1 2.7
2019-Apr-17 11:00N 52°24' E 003°49'0 0.8
2019-Apr-17 10:29N 52°25' E 003°50'1 2.5
2019-Apr-17 09:59N 52°26' E 003°51'0 0.7
2019-Apr-17 09:29N 52°26' E 003°52'4 8.9
2019-Apr-17 09:01N 52°22' E 003°54'611.6
2019-Apr-17 08:31N 52°17' E 003°60'611.5
2019-Apr-17 08:01N 52°12' E 004°05'611.4
2019-Apr-17 07:31N 52°08' E 004°12'3 6.4
2019-Apr-17 06:59N 52°06' E 004°16'0 0.0
2019-Apr-17 06:29N 52°06' E 004°16'0 0.0
2019-Apr-17 05:59N 52°06' E 004°16'0 0.0
2019-Apr-17 05:29N 52°06' E 004°16'0 0.0
2019-Apr-17 04:59N 52°06' E 004°16'0 0.0
2019-Apr-17 04:30N 52°06' E 004°16'0 0.0
2019-Apr-17 03:59N 52°06' E 004°16'0 0.0
2019-Apr-17 03:26N 52°06' E 004°16'0 0.0
2019-Apr-17 02:59N 52°06' E 004°16'0 0.0
2019-Apr-17 02:29N 52°06' E 004°16'0 0.0
2019-Apr-17 02:00N 52°06' E 004°16'0 0.0
2019-Apr-17 01:29N 52°06' E 004°16'0 0.0
2019-Apr-17 00:59N 52°06' E 004°16'0 0.0
2019-Apr-17 00:29N 52°06' E 004°16'0 0.0
2019-Apr-16 23:59N 52°06' E 004°16'0 0.0
2019-Apr-16 23:29N 52°06' E 004°16'0 0.0
2019-Apr-16 22:59N 52°06' E 004°16'0 0.0
2019-Apr-16 22:29N 52°06' E 004°16'0 0.0
2019-Apr-16 21:59N 52°06' E 004°16'0 0.0
2019-Apr-16 21:29N 52°06' E 004°16'0 0.0
2019-Apr-16 20:59N 52°06' E 004°16'0 0.0
2019-Apr-16 20:29N 52°06' E 004°16'0 0.0
2019-Apr-16 20:00N 52°06' E 004°16'0 0.0
2019-Apr-16 19:29N 52°06' E 004°16'0 0.0
2019-Apr-16 18:56N 52°06' E 004°16'0 0.0
2019-Apr-16 18:29N 52°06' E 004°16'0 0.0
2019-Apr-16 17:59N 52°06' E 004°16'0 0.0
2019-Apr-16 17:30N 52°06' E 004°16'2 4.4
2019-Apr-16 17:00N 52°08' E 004°14'612.9
2019-Apr-16 16:30N 52°13' E 004°08'612.7
2019-Apr-16 16:01N 52°19' E 004°03'612.1
2019-Apr-16 15:30N 52°24' E 003°58'2 5.0
2019-Apr-16 15:01N 52°24' E 004°02'0 0.5
2019-Apr-16 14:30N 52°24' E 004°01'1 2.5
2019-Apr-16 14:00N 52°23' E 004°00'1 1.2
2019-Apr-16 13:31N 52°23' E 004°01'2 3.4
2019-Apr-16 13:01N 52°21' E 003°59'1 2.8
2019-Apr-16 12:31N 52°20' E 003°57'1 2.2
2019-Apr-16 12:00N 52°19' E 003°57'1 1.4
2019-Apr-16 11:30N 52°18' E 003°57'2 3.1
2019-Apr-16 11:00N 52°17' E 003°55'1 1.8
2019-Apr-16 10:31N 52°17' E 003°57'1 2.4
2019-Apr-16 10:00N 52°16' E 003°56'1 2.2
2019-Apr-16 09:30N 52°15' E 003°57'1 2.3
2019-Apr-16 09:00N 52°14' E 003°59'0 0.8
2019-Apr-16 08:31N 52°15' E 003°59'1 1.3
2019-Apr-16 08:00N 52°14' E 003°59'1 1.6
2019-Apr-16 07:30N 52°15' E 003°60'0 0.1
2019-Apr-16 07:00N 52°15' E 003°60'1 1.1
2019-Apr-16 06:31N 52°15' E 004°00'611.0
2019-Apr-16 06:00N 52°11' E 004°07'611.7
2019-Apr-16 05:30N 52°07' E 004°14'2 3.0
2019-Apr-16 04:59N 52°06' E 004°16'0 0.0
2019-Apr-16 04:29N 52°06' E 004°16'0 0.0
2019-Apr-16 03:56N 52°06' E 004°16'0 0.0
2019-Apr-16 03:29N 52°06' E 004°16'0 0.0
2019-Apr-16 02:59N 52°06' E 004°16'0 0.0
2019-Apr-16 02:29N 52°06' E 004°16'0 0.0
2019-Apr-16 01:59N 52°06' E 004°16'0 0.0
2019-Apr-16 01:29N 52°06' E 004°16'0 0.0
2019-Apr-16 00:59N 52°06' E 004°16'0 0.0
2019-Apr-16 00:29N 52°06' E 004°16'0 0.0
2019-Apr-15 23:59N 52°06' E 004°16'0 0.0
2019-Apr-15 23:26N 52°06' E 004°16'0 0.0
2019-Apr-15 22:59N 52°06' E 004°16'0 0.0
2019-Apr-15 22:29N 52°06' E 004°16'0 0.0
2019-Apr-15 21:56N 52°06' E 004°16'0 0.0
2019-Apr-15 21:29N 52°06' E 004°16'0 0.0
2019-Apr-15 20:59N 52°06' E 004°16'0 0.0
2019-Apr-15 20:29N 52°06' E 004°16'0 0.0
2019-Apr-15 19:59N 52°06' E 004°16'0 0.0
2019-Apr-15 19:29N 52°06' E 004°16'0 0.0
2019-Apr-15 18:59N 52°06' E 004°16'0 0.0
2019-Apr-15 18:29N 52°06' E 004°16'0 0.0
2019-Apr-15 17:59N 52°06' E 004°16'0 0.0
2019-Apr-15 17:29N 52°06' E 004°16'0 0.0
2019-Apr-15 16:59N 52°06' E 004°16'0 0.0
2019-Apr-15 16:29N 52°06' E 004°16'0 0.0
2019-Apr-15 15:56N 52°06' E 004°16'0 0.0
2019-Apr-15 15:29N 52°06' E 004°16'0 0.0
2019-Apr-15 14:59N 52°06' E 004°16'0 0.0
2019-Apr-15 14:29N 52°06' E 004°16'0 0.0
2019-Apr-15 13:59N 52°06' E 004°16'0 0.0
2019-Apr-15 13:26N 52°06' E 004°16'0 0.0
2019-Apr-15 12:59N 52°06' E 004°16'0 0.0
2019-Apr-15 12:29N 52°06' E 004°16'0 0.0
2019-Apr-15 11:59N 52°06' E 004°16'0 0.0
2019-Apr-15 11:29N 52°06' E 004°16'0 0.0
2019-Apr-15 10:59N 52°06' E 004°16'0 0.0
2019-Apr-15 10:29N 52°06' E 004°16'0 0.0
2019-Apr-15 09:59N 52°06' E 004°16'0 0.0
2019-Apr-15 09:29N 52°06' E 004°16'0 0.0
2019-Apr-15 08:59N 52°06' E 004°16'0 0.0
2019-Apr-15 08:29N 52°06' E 004°16'0 0.0
2019-Apr-15 07:59N 52°06' E 004°16'0 0.0
2019-Apr-15 07:29N 52°06' E 004°16'0 0.0
2019-Apr-15 06:59N 52°06' E 004°16'0 0.0
2019-Apr-15 06:29N 52°06' E 004°16'0 0.0
2019-Apr-15 05:59N 52°06' E 004°16'0 0.0
2019-Apr-15 05:29N 52°06' E 004°16'0 0.0
2019-Apr-15 04:59N 52°06' E 004°16'0 0.0
2019-Apr-15 04:29N 52°06' E 004°16'0 0.0
2019-Apr-15 03:59N 52°06' E 004°16'0 0.0
2019-Apr-15 03:29N 52°06' E 004°16'0 0.0
2019-Apr-15 02:59N 52°06' E 004°16'0 0.0
2019-Apr-15 02:29N 52°06' E 004°16'0 0.0
2019-Apr-15 01:59N 52°06' E 004°16'0 0.0
2019-Apr-15 01:29N 52°06' E 004°16'0 0.0
2019-Apr-15 00:59N 52°06' E 004°16'0 0.0
2019-Apr-15 00:29N 52°06' E 004°16'0 0.0
2019-Apr-14 23:59N 52°06' E 004°16'0 0.0
2019-Apr-14 23:29N 52°06' E 004°16'0 0.0
2019-Apr-14 22:59N 52°06' E 004°16'0 0.0
2019-Apr-14 22:29N 52°06' E 004°16'0 0.0
2019-Apr-14 21:59N 52°06' E 004°16'0 0.0
2019-Apr-14 21:29N 52°06' E 004°16'0 0.0
2019-Apr-14 20:59N 52°06' E 004°16'0 0.0
2019-Apr-14 20:29N 52°06' E 004°16'0 0.0
2019-Apr-14 19:56N 52°06' E 004°16'0 0.0
2019-Apr-14 19:26N 52°06' E 004°16'0 0.0
2019-Apr-14 18:59N 52°06' E 004°16'0 0.0
2019-Apr-14 18:23N 52°06' E 004°16'0 0.0
2019-Apr-14 17:59N 52°06' E 004°16'0 0.0
2019-Apr-14 17:29N 52°06' E 004°16'0 0.0
2019-Apr-14 16:59N 52°06' E 004°16'0 0.0
2019-Apr-14 16:29N 52°06' E 004°16'0 0.0
2019-Apr-14 15:59N 52°06' E 004°16'0 0.0
2019-Apr-14 15:29N 52°06' E 004°16'0 0.0
2019-Apr-14 14:59N 52°06' E 004°16'0 0.0
2019-Apr-14 14:29N 52°06' E 004°16'0 0.0
2019-Apr-14 13:59N 52°06' E 004°16'0 0.0
2019-Apr-14 13:29N 52°06' E 004°16'0 0.0
2019-Apr-14 12:59N 52°06' E 004°16'0 0.0
2019-Apr-14 12:29N 52°06' E 004°16'0 0.0
2019-Apr-14 11:56N 52°06' E 004°16'0 0.0
2019-Apr-14 11:29N 52°06' E 004°16'0 0.0
2019-Apr-14 10:59N 52°06' E 004°16'0 0.0
2019-Apr-14 10:29N 52°06' E 004°16'0 0.0
2019-Apr-14 09:59N 52°06' E 004°16'0 0.0
2019-Apr-14 09:29N 52°06' E 004°16'0 0.0
2019-Apr-14 08:59N 52°06' E 004°16'  

Dump ship's entire track history